Time;durP1;ratioP1;P1;durP2;ratioP2;P2;SDS_P1;SDS_P2;PMS_P1;PMS_P2;Temp;Humidity;BMP_temperature;BMP_pressure;BME280_temperature;BME280_humidity;BME280_pressure;Samples;Min_cycle;Max_cycle;Signal;HPM_P1;HPM_P2
2021/05/23 00:00:30;;;;;;;3.13;2.30;;;;;;;18.69;56.08;100672.19;5024016;28;20045;-56
2021/05/23 00:02:57;;;;;;;4.43;2.70;;;;;;;18.69;56.08;100660.63;5039647;28;20057;-55
2021/05/23 00:05:25;;;;;;;3.22;2.60;;;;;;;18.69;55.88;100674.09;5024807;28;20059;-55
2021/05/23 00:07:59;;;;;;;4.57;3.00;;;;;;;18.70;56.24;100665.69;5024838;28;20076;-54
2021/05/23 00:10:25;;;;;;;3.17;2.22;;;;;;;18.71;55.96;100671.88;5024241;28;20112;-55
2021/05/23 00:12:52;;;;;;;3.08;2.40;;;;;;;18.69;56.30;100668.72;5024165;28;20661;-55
2021/05/23 00:15:20;;;;;;;2.70;2.20;;;;;;;18.70;56.11;100673.78;5024754;28;20403;-55
2021/05/23 00:17:46;;;;;;;4.65;2.85;;;;;;;18.68;56.21;100676.03;5021832;28;20506;-55
2021/05/23 00:20:12;;;;;;;2.60;2.25;;;;;;;18.68;56.11;100659.09;5024271;28;20091;-55
2021/05/23 00:22:37;;;;;;;3.92;2.58;;;;;;;18.68;55.61;100659.88;5025017;28;20037;-55
2021/05/23 00:25:03;;;;;;;3.33;2.33;;;;;;;18.70;55.98;100656.84;5023853;28;20037;-55
2021/05/23 00:27:28;;;;;;;5.35;3.22;;;;;;;18.69;56.15;100663.31;5024780;28;20503;-55
2021/05/23 00:29:54;;;;;;;3.65;2.58;;;;;;;18.69;56.39;100660.63;5006646;28;20047;-55
2021/05/23 00:32:19;;;;;;;2.40;2.20;;;;;;;18.68;56.50;100657.19;5023318;28;20487;-59
2021/05/23 00:34:45;;;;;;;3.25;2.40;;;;;;;18.69;56.01;100655.25;5024504;28;20099;-55
2021/05/23 00:37:10;;;;;;;3.00;2.72;;;;;;;18.69;56.53;100655.25;5006952;28;20046;-56
2021/05/23 00:39:36;;;;;;;2.40;2.20;;;;;;;18.68;56.32;100653.72;5023985;28;20114;-55
2021/05/23 00:42:01;;;;;;;3.70;2.60;;;;;;;18.68;56.29;100651.81;5023533;28;20059;-51
2021/05/23 00:44:26;;;;;;;4.15;2.35;;;;;;;18.68;56.07;100656.41;5024072;28;20041;-56
2021/05/23 00:46:52;;;;;;;3.92;2.88;;;;;;;18.68;56.21;100656.41;5023514;28;20526;-55
2021/05/23 00:49:17;;;;;;;3.03;2.63;;;;;;;18.68;56.08;100670.66;5007065;28;20056;-55
2021/05/23 00:51:43;;;;;;;4.00;2.50;;;;;;;18.68;55.97;100669.84;5023532;28;20037;-58
2021/05/23 00:54:08;;;;;;;3.40;2.55;;;;;;;18.68;55.93;100664.47;5036994;28;20120;-58
2021/05/23 00:56:35;;;;;;;3.45;2.38;;;;;;;18.68;55.65;100672.53;5044194;28;20044;-58
2021/05/23 00:59:01;;;;;;;2.60;2.25;;;;;;;18.67;55.96;100670.97;5043107;28;20033;-58
2021/05/23 01:01:44;;;;;;;2.53;2.30;;;;;;;18.67;56.10;100681.72;5042741;28;20043;-58
2021/05/23 01:04:10;;;;;;;2.60;2.40;;;;;;;18.67;56.03;100671.75;5043792;28;20041;-55
2021/05/23 01:06:35;;;;;;;2.55;2.25;;;;;;;18.69;55.67;100676.78;5036453;28;20096;-55
2021/05/23 01:09:00;;;;;;;3.70;2.55;;;;;;;18.68;55.74;100683.31;5004533;28;20029;-58
2021/05/23 01:11:29;;;;;;;3.40;2.42;;;;;;;18.68;56.01;100686.00;5018113;28;20045;-58
2021/05/23 01:13:57;;;;;;;2.97;2.63;;;;;;;18.67;55.88;100685.22;5034358;28;20116;-57
2021/05/23 01:16:49;;;;;;;4.88;2.50;;;;;;;18.67;56.04;100681.72;5039431;28;20909;-55
2021/05/23 01:19:32;;;;;;;3.15;2.33;;;;;;;18.66;55.98;100680.94;5028697;28;20029;-55
2021/05/23 01:22:18;;;;;;;2.92;2.63;;;;;;;18.68;56.04;100691.38;5026893;28;20136;-55
2021/05/23 01:25:09;;;;;;;3.90;2.90;;;;;;;18.66;56.17;100691.72;5041455;28;20040;-55
2021/05/23 01:27:36;;;;;;;2.85;2.60;;;;;;;18.68;56.00;100688.69;5042673;28;20090;-55
2021/05/23 01:30:07;;;;;;;2.88;2.40;;;;;;;18.66;56.20;100680.94;5042838;28;20033;-55
2021/05/23 01:32:33;;;;;;;3.10;2.13;;;;;;;18.66;56.08;100686.31;5043816;28;20049;-55
2021/05/23 01:35:00;;;;;;;2.67;2.40;;;;;;;18.66;56.01;100690.94;5043210;28;20533;-57
2021/05/23 01:37:25;;;;;;;3.65;2.35;;;;;;;18.66;56.02;100680.94;5043694;28;20087;-55
2021/05/23 01:39:50;;;;;;;4.22;2.70;;;;;;;18.66;56.21;100690.94;5042993;28;20029;-56
2021/05/23 01:42:16;;;;;;;4.78;2.95;;;;;;;18.66;56.24;100690.94;5021544;28;20052;-55
2021/05/23 01:44:41;;;;;;;4.97;2.40;;;;;;;18.66;56.04;100693.63;5021797;28;20048;-56
2021/05/23 01:47:06;;;;;;;2.92;2.15;;;;;;;18.66;56.06;100689.03;5022249;28;20055;-55
2021/05/23 01:49:32;;;;;;;4.93;2.45;;;;;;;18.66;55.95;100694.41;5021109;28;20041;-55
2021/05/23 01:51:57;;;;;;;4.05;2.40;;;;;;;18.66;55.87;100696.34;5040854;28;20492;-56
2021/05/23 01:54:22;;;;;;;4.40;2.45;;;;;;;18.64;56.36;100690.47;5027394;28;20371;-55
2021/05/23 01:56:48;;;;;;;3.15;2.67;;;;;;;18.65;56.26;100690.16;5003337;28;20040;-56
2021/05/23 01:59:13;;;;;;;3.08;2.30;;;;;;;18.65;56.25;100695.53;5045929;28;20070;-58
2021/05/23 02:01:38;;;;;;;2.58;2.38;;;;;;;18.66;56.22;100696.34;5045112;28;20066;-56
2021/05/23 02:04:05;;;;;;;3.67;2.35;;;;;;;18.66;56.00;100696.34;5027584;28;20044;-56
2021/05/23 02:06:30;;;;;;;4.18;2.63;;;;;;;18.65;56.15;100700.94;5045951;28;20052;-56
2021/05/23 02:08:55;;;;;;;6.97;2.58;;;;;;;18.66;56.11;100697.09;5027277;28;20033;-57
2021/05/23 02:11:21;;;;;;;3.55;2.72;;;;;;;18.66;55.97;100697.09;5028852;28;20059;-56
2021/05/23 02:13:50;;;;;;;4.03;2.55;;;;;;;18.65;56.17;100694.75;5046156;28;20037;-56
2021/05/23 02:16:17;;;;;;;4.35;2.70;;;;;;;18.65;56.19;100694.75;5028091;28;20127;-56
2021/05/23 02:18:44;;;;;;;5.97;2.47;;;;;;;18.65;55.96;100695.53;5046743;28;20045;-56
2021/05/23 02:21:09;;;;;;;3.70;2.55;;;;;;;18.65;56.26;100692.06;5028703;28;20071;-56
2021/05/23 02:23:35;;;;;;;8.13;2.72;;;;;;;18.65;56.07;100694.75;5044899;28;20067;-56
2021/05/23 02:26:00;;;;;;;5.18;2.53;;;;;;;18.64;56.15;100696.66;5027212;28;20034;-58
2021/05/23 02:28:25;;;;;;;2.75;2.40;;;;;;;18.64;56.17;100695.88;5025901;28;20045;-55
2021/05/23 02:30:53;;;;;;;3.40;2.42;;;;;;;18.65;56.02;100705.53;5044514;28;20041;-56
2021/05/23 02:33:19;;;;;;;3.05;2.50;;;;;;;18.64;56.09;100698.56;5047055;28;20059;-56
2021/05/23 02:35:47;;;;;;;4.72;2.45;;;;;;;18.65;56.05;100694.75;5046032;28;20098;-56
2021/05/23 02:38:13;;;;;;;5.45;2.80;;;;;;;18.64;55.89;100693.19;5028410;28;20029;-57
2021/05/23 02:40:38;;;;;;;2.85;2.30;;;;;;;18.64;56.22;100703.94;5045221;28;20384;-55
2021/05/23 02:43:04;;;;;;;3.58;2.42;;;;;;;18.64;56.01;100698.56;5057233;28;20055;-57
2021/05/23 02:45:29;;;;;;;6.38;2.40;;;;;;;18.64;55.96;100693.19;5029196;28;20464;-55
2021/05/23 02:47:55;;;;;;;2.85;2.35;;;;;;;18.63;56.13;100703.19;5028737;28;20029;-55
2021/05/23 02:50:25;;;;;;;3.47;2.47;;;;;;;18.63;55.82;100705.88;5025993;28;20132;-55
2021/05/23 02:52:50;;;;;;;3.20;2.20;;;;;;;18.64;55.95;100703.94;5025656;28;20041;-56
2021/05/23 02:55:16;;;;;;;5.03;2.40;;;;;;;18.62;56.07;100701.59;5025896;28;20033;-55
2021/05/23 02:57:42;;;;;;;2.97;2.33;;;;;;;18.62;56.10;100698.13;5026136;28;20065;-56
2021/05/23 03:00:09;;;;;;;2.38;2.13;;;;;;;18.62;55.99;100698.91;5025215;28;20103;-55
2021/05/23 03:02:35;;;;;;;2.78;2.58;;;;;;;18.63;56.09;100697.00;5008691;28;20537;-56
2021/05/23 03:05:00;;;;;;;2.88;2.50;;;;;;;18.63;56.11;100697.81;5025776;28;20467;-55
2021/05/23 03:07:26;;;;;;;3.97;2.75;;;;;;;18.62;56.15;100704.28;5026249;28;20116;-55
2021/05/23 03:09:51;;;;;;;3.28;2.53;;;;;;;18.63;56.21;100710.47;5007093;28;20038;-56
2021/05/23 03:12:16;;;;;;;5.85;2.63;;;;;;;18.62;56.06;100706.19;5022472;28;20838;-56
2021/05/23 03:14:42;;;;;;;4.65;2.40;;;;;;;18.62;56.27;100704.28;5005381;28;20132;-55
2021/05/23 03:17:10;;;;;;;5.28;2.40;;;;;;;18.63;56.10;100713.94;5006096;28;20040;-56
2021/05/23 03:19:37;;;;;;;7.53;2.50;;;;;;;18.62;56.47;100715.06;4967068;28;20041;-55
2021/05/23 03:22:04;;;;;;;3.58;2.83;;;;;;;18.63;56.31;100716.63;5022150;28;20033;-56
2021/05/23 03:24:30;;;;;;;3.10;2.22;;;;;;;18.64;56.30;100728.16;5025260;28;20036;-57
2021/05/23 03:26:55;;;;;;;5.18;2.83;;;;;;;18.64;56.52;100725.47;5026001;28;21252;-56
2021/05/23 03:29:20;;;;;;;3.42;2.75;;;;;;;18.63;56.44;100724.72;5024814;28;20034;-56
2021/05/23 03:31:46;;;;;;;3.20;2.67;;;;;;;18.63;56.43;100732.00;5025398;28;20044;-58
2021/05/23 03:34:11;;;;;;;2.17;2.08;;;;;;;18.63;56.43;100723.91;5022770;28;20042;-58
2021/05/23 03:36:36;;;;;;;2.92;2.60;;;;;;;18.62;56.31;100733.91;5025397;28;20707;-56
2021/05/23 03:39:02;;;;;;;3.75;2.67;;;;;;;18.63;56.36;100734.69;5030560;28;20047;-56
2021/05/23 03:41:27;;;;;;;2.60;2.38;;;;;;;18.63;56.34;100734.69;5065448;28;20562;-56
2021/05/23 03:43:53;;;;;;;3.25;2.55;;;;;;;18.63;56.08;100737.38;5064665;28;20047;-56
2021/05/23 03:46:18;;;;;;;4.85;2.60;;;;;;;18.62;56.10;100733.91;5064324;28;20044;-55
2021/05/23 03:48:43;;;;;;;3.92;2.83;;;;;;;18.62;56.39;100728.50;5039828;28;20046;-55
2021/05/23 03:51:09;;;;;;;4.85;2.97;;;;;;;18.63;55.85;100737.38;5005944;28;20459;-56
2021/05/23 03:53:34;;;;;;;4.00;2.85;;;;;;;18.61;56.28;100720.75;5005549;28;20037;-56
2021/05/23 03:55:59;;;;;;;2.90;2.70;;;;;;;18.61;56.19;100731.53;5005121;28;20488;-56
2021/05/23 03:58:25;;;;;;;2.13;2.03;;;;;;;18.60;56.32;100728.06;4989592;28;20095;-56
2021/05/23 04:00:50;;;;;;;4.18;3.00;;;;;;;18.61;55.98;100732.31;5004505;28;20042;-55
2021/05/23 04:03:15;;;;;;;3.78;2.80;;;;;;;18.61;56.18;100736.91;5003934;28;20033;-56
2021/05/23 04:05:41;;;;;;;5.35;3.15;;;;;;;18.61;56.02;100744.97;4989647;28;20643;-56
2021/05/23 04:08:06;;;;;;;3.38;2.58;;;;;;;18.62;56.16;100746.56;5004500;28;20081;-55
2021/05/23 04:10:41;;;;;;;4.40;3.25;;;;;;;18.61;56.33;100735.00;5004754;28;20048;-56
2021/05/23 04:13:09;;;;;;;4.93;3.10;;;;;;;18.62;56.15;100743.88;5001664;28;20053;-56
2021/05/23 04:15:35;;;;;;;5.07;3.55;;;;;;;18.62;56.11;100744.66;5013124;28;20067;-57
2021/05/23 04:18:00;;;;;;;3.72;3.40;;;;;;;18.61;56.25;100731.53;5006347;28;20080;-56
2021/05/23 04:20:26;;;;;;;3.40;3.00;;;;;;;18.61;56.00;100743.09;5020964;28;20041;-56
2021/05/23 04:22:51;;;;;;;5.20;3.10;;;;;;;18.62;56.28;100741.19;5061970;28;20819;-56
2021/05/23 04:25:17;;;;;;;3.58;3.25;;;;;;;18.60;56.38;100741.53;5029006;28;20044;-56
2021/05/23 04:27:43;;;;;;;3.75;3.30;;;;;;;18.61;56.18;100747.69;5025667;28;20458;-57
2021/05/23 04:30:09;;;;;;;5.45;3.78;;;;;;;18.61;56.25;100753.06;5025367;28;21083;-56
2021/05/23 04:32:35;;;;;;;4.57;3.60;;;;;;;18.62;56.38;100765.41;5030799;28;20057;-57
2021/05/23 04:35:00;;;;;;;5.00;4.47;;;;;;;18.61;56.43;100758.44;5017681;28;20038;-56
2021/05/23 04:37:26;;;;;;;4.68;4.25;;;;;;;18.61;56.49;100758.44;5018389;28;20037;-56
2021/05/23 04:39:52;;;;;;;4.38;4.03;;;;;;;18.60;56.36;100765.75;5024329;28;20120;-57
2021/05/23 04:42:17;;;;;;;5.30;4.32;;;;;;;18.61;56.51;100769.22;5017253;28;20038;-56
2021/05/23 04:44:42;;;;;;;4.57;4.05;;;;;;;18.60;56.39;100768.44;5028803;28;20039;-56
2021/05/23 04:47:08;;;;;;;4.82;4.43;;;;;;;18.60;56.39;100764.97;5043939;28;20094;-56
2021/05/23 04:49:38;;;;;;;4.65;4.35;;;;;;;18.61;56.13;100770.00;5043097;28;20032;-56
2021/05/23 04:52:07;;;;;;;5.85;5.35;;;;;;;18.61;56.60;100775.38;5043211;28;20033;-56
2021/05/23 04:54:33;;;;;;;5.55;5.00;;;;;;;18.62;56.41;100773.47;5042719;28;20037;-56
2021/05/23 04:56:58;;;;;;;9.52;4.53;;;;;;;18.61;56.50;100777.28;5025943;28;20033;-55
2021/05/23 04:59:23;;;;;;;4.82;4.32;;;;;;;18.61;56.32;100774.59;5032377;28;20038;-56
2021/05/23 05:01:49;;;;;;;4.88;4.57;;;;;;;18.61;56.55;100766.50;5021232;28;20048;-58
2021/05/23 05:04:14;;;;;;;7.03;5.28;;;;;;;18.61;56.56;100775.38;5005105;28;20088;-56
2021/05/23 05:06:39;;;;;;;6.53;5.95;;;;;;;18.61;56.57;100777.28;5019808;28;20033;-58
2021/05/23 05:09:05;;;;;;;5.40;5.00;;;;;;;18.60;56.59;100779.22;5014813;28;20051;-58
2021/05/23 05:11:30;;;;;;;6.45;5.90;;;;;;;18.59;56.59;100777.63;4960134;28;20030;-56
2021/05/23 05:13:56;;;;;;;7.30;6.60;;;;;;;18.58;56.71;100769.91;4986964;28;20038;-56
2021/05/23 05:16:21;;;;;;;7.15;5.93;;;;;;;18.58;56.73;100773.34;4991795;28;20053;-58
2021/05/23 05:18:46;;;;;;;7.57;6.88;;;;;;;18.58;56.50;100776.06;5004867;28;20041;-58
2021/05/23 05:21:12;;;;;;;7.03;6.50;;;;;;;18.58;56.79;100769.91;5016134;28;20041;-59
2021/05/23 05:23:37;;;;;;;7.63;7.03;;;;;;;18.58;56.61;100775.28;4987803;28;20493;-58
2021/05/23 05:26:03;;;;;;;7.15;6.57;;;;;;;18.59;56.62;100776.84;5006777;28;20095;-59
2021/05/23 05:28:28;;;;;;;6.88;6.38;;;;;;;18.59;56.46;100782.22;5023480;28;20031;-58
2021/05/23 05:30:54;;;;;;;7.35;6.65;;;;;;;18.60;56.80;100781.13;5024114;28;20760;-58
2021/05/23 05:33:19;;;;;;;8.23;7.40;;;;;;;18.59;56.74;100777.63;5029695;28;20053;-58
2021/05/23 05:35:45;;;;;;;6.78;5.40;;;;;;;18.60;56.40;100781.13;5030454;28;20483;-57
2021/05/23 05:38:12;;;;;;;7.80;7.10;;;;;;;18.60;56.13;100779.22;5012067;28;20041;-57
2021/05/23 05:40:38;;;;;;;7.00;6.50;;;;;;;18.60;56.98;100787.28;5031397;28;20069;-57
2021/05/23 05:43:03;;;;;;;8.00;7.35;;;;;;;18.59;56.50;100783.00;5030191;28;20102;-57
2021/05/23 05:45:28;;;;;;;8.60;7.47;;;;;;;18.58;56.73;100781.44;5010083;28;20503;-57
2021/05/23 05:47:54;;;;;;;9.30;8.38;;;;;;;18.58;56.42;100792.19;5006075;28;20064;-58
2021/05/23 05:50:19;;;;;;;8.00;7.38;;;;;;;18.58;56.50;100797.56;5009154;28;20033;-56
2021/05/23 05:52:44;;;;;;;8.55;7.95;;;;;;;18.59;56.72;100795.69;4997634;28;20042;-57
2021/05/23 05:55:10;;;;;;;9.85;8.93;;;;;;;18.55;56.55;100809.00;5010033;28;20084;-56
2021/05/23 05:57:36;;;;;;;9.95;9.10;;;;;;;18.55;56.53;100805.56;5010426;28;20038;-57
2021/05/23 06:00:01;;;;;;;11.30;10.30;;;;;;;18.51;56.93;100801.94;5010825;28;20435;-57
2021/05/23 06:02:27;;;;;;;9.23;8.63;;;;;;;18.52;56.69;100803.53;4989191;28;20034;-58
2021/05/23 06:04:52;;;;;;;10.68;9.68;;;;;;;18.50;56.69;100808.44;5007219;28;20042;-56
2021/05/23 06:07:18;;;;;;;11.18;10.00;;;;;;;18.47;56.80;100814.50;5017000;28;20034;-56
2021/05/23 06:09:43;;;;;;;12.50;10.18;;;;;;;18.48;56.89;100818.75;5021446;28;20122;-56
2021/05/23 06:12:09;;;;;;;11.65;10.30;;;;;;;18.43;56.83;100814.38;5012909;28;20052;-56
2021/05/23 06:14:34;;;;;;;12.30;9.68;;;;;;;18.46;56.94;100818.28;5008133;28;20411;-56
2021/05/23 06:16:59;;;;;;;10.82;9.38;;;;;;;18.50;56.86;100817.31;4969482;28;20034;-56
2021/05/23 06:19:25;;;;;;;9.73;9.02;;;;;;;18.50;57.04;100824.59;5007420;28;20041;-58
2021/05/23 06:21:50;;;;;;;10.23;8.50;;;;;;;18.51;57.23;100820.78;4993122;28;20041;-57
2021/05/23 06:24:15;;;;;;;9.60;8.27;;;;;;;18.53;57.10;100822.03;5003237;28;20031;-58
2021/05/23 06:26:41;;;;;;;14.10;8.38;;;;;;;18.53;57.29;100822.03;4983203;28;20038;-56
2021/05/23 06:29:06;;;;;;;13.48;8.63;;;;;;;18.52;57.37;100827.75;4977705;28;20038;-57
2021/05/23 06:31:32;;;;;;;11.13;8.93;;;;;;;18.46;57.05;100837.91;4988603;28;20045;-56
2021/05/23 06:33:57;;;;;;;9.10;8.18;;;;;;;18.49;57.26;100841.88;4999310;28;20046;-56
2021/05/23 06:36:23;;;;;;;9.57;8.55;;;;;;;18.43;56.91;100837.78;4998993;28;20103;-56
2021/05/23 06:38:49;;;;;;;10.68;8.27;;;;;;;18.42;56.86;100850.44;5010245;28;20491;-55
2021/05/23 06:41:14;;;;;;;21.63;8.15;;;;;;;18.40;56.99;100852.69;4990193;28;20112;-57
2021/05/23 06:43:40;;;;;;;10.25;8.10;;;;;;;18.42;56.85;100852.34;5010088;28;20050;-56
2021/05/23 06:46:05;;;;;;;9.63;8.25;;;;;;;18.34;56.66;100857.50;5013582;28;20049;-58
2021/05/23 06:48:31;;;;;;;10.10;7.85;;;;;;;18.40;56.59;100866.16;5008789;28;20083;-57
2021/05/23 06:50:56;;;;;;;7.90;7.20;;;;;;;18.42;56.68;100868.50;5026020;28;20102;-58
2021/05/23 06:53:22;;;;;;;7.70;6.90;;;;;;;18.36;56.93;100870.63;5023420;28;20045;-57
2021/05/23 06:55:47;;;;;;;10.10;6.53;;;;;;;18.36;56.53;100879.47;5009013;28;20040;-57
2021/05/23 06:58:12;;;;;;;7.95;6.93;;;;;;;18.36;56.76;100879.47;5006463;28;20072;-58
2021/05/23 07:00:38;;;;;;;7.85;6.70;;;;;;;18.36;56.54;100881.38;5024062;28;20059;-56
2021/05/23 07:03:03;;;;;;;10.25;6.75;;;;;;;18.35;56.52;100879.81;5024941;28;20045;-56
2021/05/23 07:05:29;;;;;;;10.88;6.72;;;;;;;18.41;56.32;100880.41;5008190;28;20427;-58
2021/05/23 07:07:54;;;;;;;9.77;6.13;;;;;;;18.44;56.50;100891.28;5007552;28;20037;-58
2021/05/23 07:10:19;;;;;;;11.95;6.30;;;;;;;18.43;56.38;100881.63;5010493;28;20037;-57
2021/05/23 07:12:45;;;;;;;12.00;5.50;;;;;;;18.42;56.47;100893.50;5023429;28;20052;-57
2021/05/23 07:15:10;;;;;;;10.38;6.70;;;;;;;18.40;56.68;100887.69;5016590;28;20527;-57
2021/05/23 07:17:36;;;;;;;8.70;5.57;;;;;;;18.43;56.32;100894.28;5016695;28;20057;-58
2021/05/23 07:20:02;;;;;;;9.77;5.72;;;;;;;18.42;56.43;100890.81;5022969;28;20033;-55
2021/05/23 07:22:27;;;;;;;10.15;5.95;;;;;;;18.39;56.28;100890.72;5025142;28;20041;-58
2021/05/23 07:24:53;;;;;;;7.38;5.60;;;;;;;18.30;56.32;100896.97;5007290;28;20041;-58
2021/05/23 07:27:18;;;;;;;10.27;5.00;;;;;;;18.34;56.33;100889.00;5025369;28;20041;-56
2021/05/23 07:29:43;;;;;;;8.05;4.72;;;;;;;18.33;56.32;100900.91;4994104;28;20041;-57
2021/05/23 07:32:09;;;;;;;8.43;4.38;;;;;;;18.30;56.36;100891.59;5004742;28;20037;-59
2021/05/23 07:34:34;;;;;;;7.18;5.32;;;;;;;18.32;56.09;100900.09;5024361;28;20076;-58
2021/05/23 07:37:00;;;;;;;7.82;4.70;;;;;;;18.29;56.42;100905.34;5024575;28;20061;-56
2021/05/23 07:39:25;;;;;;;7.07;5.00;;;;;;;18.30;56.37;100898.88;5017393;28;20042;-56
2021/05/23 07:41:50;;;;;;;8.18;4.63;;;;;;;18.31;55.98;100901.22;5006133;28;20488;-59
2021/05/23 07:44:17;;;;;;;6.85;4.30;;;;;;;18.30;56.11;100910.41;4999668;28;20049;-58
2021/05/23 07:46:43;;;;;;;7.03;4.25;;;;;;;18.29;56.11;100914.22;5002300;28;20499;-57
2021/05/23 07:49:08;;;;;;;7.13;3.97;;;;;;;18.27;55.98;100924.53;4988348;28;20119;-58
2021/05/23 07:51:33;;;;;;;9.90;4.45;;;;;;;18.27;55.92;100912.97;5000138;28;20046;-58
2021/05/23 07:53:59;;;;;;;8.05;3.90;;;;;;;18.33;55.95;100923.19;5010386;28;20128;-58
2021/05/23 07:56:24;;;;;;;6.65;3.83;;;;;;;18.31;55.80;100922.72;5004080;28;20041;-59
2021/05/23 07:58:49;;;;;;;10.88;3.80;;;;;;;18.33;56.05;100917.03;4978906;28;20038;-57
2021/05/23 08:01:15;;;;;;;7.03;3.78;;;;;;;18.30;55.65;100923.06;5004456;28;20106;-57
2021/05/23 08:03:40;;;;;;;6.32;3.95;;;;;;;18.31;55.84;100927.31;4990135;28;20111;-57
2021/05/23 08:06:08;;;;;;;6.18;3.50;;;;;;;18.27;55.68;100926.44;4985792;28;20041;-59
2021/05/23 08:08:33;;;;;;;7.43;3.90;;;;;;;18.27;55.91;100926.44;4983922;28;20038;-57
2021/05/23 08:10:58;;;;;;;8.73;3.70;;;;;;;18.26;55.29;100932.91;5007217;28;20741;-57
2021/05/23 08:13:24;;;;;;;6.90;3.50;;;;;;;18.32;55.53;100926.22;4987773;28;20045;-57
2021/05/23 08:15:50;;;;;;;7.93;3.78;;;;;;;18.28;55.62;100936.84;5005863;28;20044;-58
2021/05/23 08:18:18;;;;;;;8.20;3.35;;;;;;;18.28;55.96;100949.50;5000451;28;20084;-57
2021/05/23 08:20:43;;;;;;;5.32;3.00;;;;;;;18.28;55.64;100938.75;5004941;28;20527;-57
2021/05/23 08:23:09;;;;;;;6.72;3.28;;;;;;;18.29;55.74;100951.88;5010729;28;20042;-58
2021/05/23 08:25:34;;;;;;;5.95;3.10;;;;;;;18.32;55.81;100945.84;5007295;28;20049;-59
2021/05/23 08:28:00;;;;;;;9.27;3.80;;;;;;;18.33;56.83;100957.41;5000553;28;20519;-60
2021/05/23 08:30:25;;;;;;;8.57;3.60;;;;;;;18.28;57.20;100958.38;5013569;28;20055;-58
2021/05/23 08:32:50;;;;;;;9.02;3.72;;;;;;;18.29;57.14;100964.53;4970726;28;20244;-59
2021/05/23 08:35:16;;;;;;;6.25;3.25;;;;;;;18.34;57.21;100964.34;4993033;28;20041;-58
2021/05/23 08:37:41;;;;;;;10.52;3.33;;;;;;;18.33;56.93;100970.84;5008675;28;20046;-57
2021/05/23 08:40:07;;;;;;;9.38;3.60;;;;;;;18.29;56.85;100976.09;5011083;28;20530;-57
2021/05/23 08:42:33;;;;;;;9.38;3.75;;;;;;;18.25;56.56;100972.47;5011844;28;20064;-57
2021/05/23 08:44:58;;;;;;;8.70;3.33;;;;;;;18.25;56.60;100979.78;5027498;28;20065;-58
2021/05/23 08:47:24;;;;;;;8.07;3.78;;;;;;;18.25;56.06;100977.09;5028845;28;20160;-58
2021/05/23 08:49:50;;;;;;;8.30;3.33;;;;;;;18.27;56.16;100986.41;5010364;28;20040;-57
2021/05/23 08:52:15;;;;;;;4.88;3.33;;;;;;;18.27;56.07;100997.16;5023743;28;20105;-58
2021/05/23 08:54:41;;;;;;;7.72;3.13;;;;;;;18.20;55.95;100988.03;5030510;28;20041;-56
2021/05/23 08:57:07;;;;;;;14.48;3.13;;;;;;;18.22;55.63;100994.66;5031899;28;20049;-58
2021/05/23 08:59:32;;;;;;;10.95;3.30;;;;;;;18.29;56.15;100994.91;5016396;28;20041;-58
2021/05/23 09:02:07;;;;;;;20.90;3.78;;;;;;;18.25;56.29;100994.00;5023625;28;20489;-55
2021/05/23 09:04:33;;;;;;;11.45;3.33;;;;;;;18.32;56.07;101001.53;5042901;28;20144;-57
2021/05/23 09:07:02;;;;;;;9.43;3.40;;;;;;;18.31;55.92;100995.38;5019334;28;20041;-56
2021/05/23 09:09:28;;;;;;;12.88;3.47;;;;;;;18.29;56.04;100997.63;5017234;28;20410;-57
2021/05/23 09:11:55;;;;;;;13.27;3.15;;;;;;;18.29;56.17;101005.69;5009404;28;20037;-57
2021/05/23 09:14:33;;;;;;;10.25;3.28;;;;;;;18.22;55.66;101004.63;5004414;28;20061;-57
2021/05/23 09:16:59;;;;;;;9.23;3.05;;;;;;;18.26;55.59;101017.09;5017789;28;20049;-58
2021/05/23 09:19:26;;;;;;;8.05;2.90;;;;;;;18.23;55.37;101017.75;5013756;28;20041;-58
2021/05/23 09:21:51;;;;;;;13.93;2.88;;;;;;;18.23;55.80;101015.06;5008683;28;20128;-57
2021/05/23 09:24:16;;;;;;;7.05;3.22;;;;;;;18.28;55.20;101028.31;5023293;28;20045;-59
2021/05/23 09:26:43;;;;;;;6.93;2.70;;;;;;;18.32;55.12;101018.47;5042295;28;20044;-57
2021/05/23 09:29:21;;;;;;;5.95;2.83;;;;;;;18.31;55.13;101016.91;5028104;28;20805;-58
2021/05/23 09:31:55;;;;;;;8.75;3.20;;;;;;;18.30;54.89;101031.47;5012676;28;20127;-59
2021/05/23 09:34:25;;;;;;;8.98;3.00;;;;;;;18.22;54.12;101040.38;5024098;28;20143;-56
2021/05/23 09:36:51;;;;;;;7.82;2.50;;;;;;;18.20;54.75;101048.00;5010977;28;20030;-56
2021/05/23 09:39:16;;;;;;;6.43;2.95;;;;;;;18.14;54.54;101040.47;5032020;28;20048;-57
2021/05/23 09:41:42;;;;;;;7.97;2.80;;;;;;;18.19;54.13;101046.44;5011176;28;20076;-56
2021/05/23 09:44:14;;;;;;;5.28;2.50;;;;;;;18.21;53.96;101049.56;5011945;28;20050;-57
2021/05/23 09:47:04;;;;;;;4.93;2.20;;;;;;;18.22;53.65;101055.75;5000173;28;20125;-56
2021/05/23 09:49:30;;;;;;;6.97;2.53;;;;;;;18.22;53.35;101058.44;5020180;28;20460;-57
2021/05/23 09:51:59;;;;;;;7.90;2.72;;;;;;;18.23;53.18;101062.69;5024386;28;20061;-56
2021/05/23 09:54:26;;;;;;;9.57;2.45;;;;;;;18.23;53.24;101060.00;5017779;28;20037;-59
2021/05/23 09:56:52;;;;;;;5.50;2.40;;;;;;;18.23;52.88;101046.53;5022659;28;20125;-57
2021/05/23 09:59:18;;;;;;;6.90;2.83;;;;;;;18.23;52.31;101062.69;5017413;28;20128;-58
2021/05/23 10:01:44;;;;;;;4.03;2.08;;;;;;;18.23;52.32;101070.75;5016173;28;20112;-54
2021/05/23 10:04:22;;;;;;;3.70;2.10;;;;;;;18.21;52.12;101062.22;5024448;28;20709;-57
2021/05/23 10:06:58;;;;;;;5.50;2.20;;;;;;;18.23;51.91;101076.94;4996688;28;20120;-57
2021/05/23 10:09:24;;;;;;;6.60;2.45;;;;;;;18.24;51.65;101073.13;4993235;28;20539;-59
2021/05/23 10:11:50;;;;;;;4.82;2.30;;;;;;;18.29;51.61;101072.16;4999720;28;20038;-56
2021/05/23 10:14:15;;;;;;;5.65;2.33;;;;;;;18.30;51.58;101079.91;5014497;28;20048;-57
2021/05/23 10:16:41;;;;;;;5.18;2.28;;;;;;;18.31;51.93;101078.78;5028059;28;20039;-56
2021/05/23 10:19:06;;;;;;;3.53;2.30;;;;;;;18.32;51.03;101080.34;4996935;28;20077;-59
2021/05/23 10:21:31;;;;;;;2.60;2.28;;;;;;;18.34;51.34;101088.09;4981465;28;20037;-58
2021/05/23 10:23:58;;;;;;;3.53;2.15;;;;;;;18.30;51.02;101081.81;5037470;28;20084;-54
2021/05/23 10:26:25;;;;;;;7.35;1.92;;;;;;;18.29;50.93;101090.97;5007895;28;20033;-56
2021/05/23 10:28:51;;;;;;;4.60;2.15;;;;;;;18.31;50.85;101097.59;5031910;28;20053;-57
2021/05/23 10:31:29;;;;;;;3.53;2.20;;;;;;;18.28;51.32;101094.78;5009160;28;20549;-59
2021/05/23 10:33:55;;;;;;;8.30;2.50;;;;;;;18.28;51.12;101090.19;5041464;28;20725;-58
2021/05/23 10:36:37;;;;;;;7.72;2.45;;;;;;;18.29;51.25;101089.09;4975967;28;20050;-57
2021/05/23 10:39:05;;;;;;;6.55;2.08;;;;;;;18.30;51.10;101092.56;5008613;28;20128;-55
2021/05/23 10:41:31;;;;;;;7.13;2.20;;;;;;;18.28;51.37;101084.81;4998827;28;20113;-58
2021/05/23 10:44:00;;;;;;;8.25;2.35;;;;;;;18.30;51.57;101087.19;5035094;28;20043;-57
2021/05/23 10:46:26;;;;;;;3.58;2.00;;;;;;;18.27;51.27;101093.22;5034073;28;20040;-57
2021/05/23 10:48:56;;;;;;;3.67;2.35;;;;;;;18.29;51.18;101099.84;5020502;28;20038;-57
2021/05/23 10:51:22;;;;;;;3.20;1.95;;;;;;;18.28;51.04;101100.16;5035892;28;20427;-58
2021/05/23 10:53:47;;;;;;;6.47;2.08;;;;;;;18.30;50.74;101090.66;5046469;28;20041;-57
2021/05/23 10:56:29;;;;;;;5.38;1.90;;;;;;;18.30;51.38;101100.63;5042704;28;20056;-57
2021/05/23 10:59:01;;;;;;;2.80;1.90;;;;;;;18.28;50.90;101100.94;5016545;28;20042;-57
2021/05/23 11:01:42;;;;;;;5.30;2.08;;;;;;;18.27;50.51;101104.78;5017479;28;21520;-57
2021/05/23 11:04:15;;;;;;;3.08;1.90;;;;;;;18.29;50.95;101113.28;5035243;28;20072;-57
2021/05/23 11:06:41;;;;;;;5.60;2.10;;;;;;;18.26;50.79;101111.25;5017856;28;20040;-57
2021/05/23 11:09:14;;;;;;;6.82;2.63;;;;;;;18.29;50.94;101109.81;5027577;28;20036;-58
2021/05/23 11:11:40;;;;;;;7.88;2.30;;;;;;;18.32;50.73;101111.84;5004786;28;20486;-57
2021/05/23 11:14:32;;;;;;;3.97;2.13;;;;;;;18.30;50.64;101109.50;5015160;28;20129;-57
2021/05/23 11:16:57;;;;;;;3.10;1.80;;;;;;;18.30;50.52;101114.09;5000694;28;20042;-57
2021/05/23 11:19:29;;;;;;;5.10;2.00;;;;;;;18.29;50.18;101117.88;5025213;28;20126;-57
2021/05/23 11:21:55;;;;;;;5.03;2.03;;;;;;;18.30;50.59;101122.94;5021267;28;20057;-58